Time;durP1;ratioP1;P1;durP2;ratioP2;P2;SDS_P1;SDS_P2;PMS_P1;PMS_P2;Temp;Humidity;BMP_temperature;BMP_pressure;BME280_temperature;BME280_humidity;BME280_pressure;Samples;Min_cycle;Max_cycle;Signal;HPM_P1;HPM_P2
2023/04/25 00:02:00;;;;;;;;;;;7.20;72.30;;;;;;4073558;29;19911;-87
2023/04/25 00:04:05;;;;;;;;;;;7.20;72.30;;;;;;4076283;29;19950;-87
2023/04/25 00:06:09;;;;;;;;;;;7.20;72.20;;;;;;4073284;29;20435;-89
2023/04/25 00:08:09;;;;;;;;;;;7.20;72.20;;;;;;4062931;29;19954;-88
2023/04/25 00:10:13;;;;;;;;;;;7.10;72.20;;;;;;4056827;29;19916;-88
2023/04/25 00:12:15;;;;;;;;;;;7.00;72.20;;;;;;4062407;29;19938;-88
2023/04/25 00:14:16;;;;;;;;;;;7.10;72.30;;;;;;4062998;29;19994;-87
2023/04/25 00:16:17;;;;;;;;;;;7.20;72.40;;;;;;4059522;29;20172;-88
2023/04/25 00:18:18;;;;;;;;;;;7.00;72.40;;;;;;4073480;28;19919;-87
2023/04/25 00:20:19;;;;;;;;;;;7.00;72.40;;;;;;4065969;29;19919;-88
2023/04/25 00:22:20;;;;;;;;;;;7.00;72.50;;;;;;4066974;29;19922;-86
2023/04/25 00:24:21;;;;;;;;;;;7.10;72.40;;;;;;4062166;29;19915;-88
2023/04/25 00:26:22;;;;;;;;;;;6.90;71.90;;;;;;4087757;28;19911;-86
2023/04/25 00:28:22;;;;;;;;;;;7.00;71.70;;;;;;4054818;29;19919;-87
2023/04/25 00:30:23;;;;;;;;;;;6.90;71.60;;;;;;4076122;29;19974;-87
2023/04/25 00:32:27;;;;;;;;;;;6.90;71.50;;;;;;4071341;29;20678;-87
2023/04/25 00:34:28;;;;;;;;;;;6.80;71.50;;;;;;4064128;29;19998;-87
2023/04/25 00:36:28;;;;;;;;;;;6.80;71.70;;;;;;4073810;29;19919;-88
2023/04/25 00:38:32;;;;;;;;;;;6.80;72.00;;;;;;4073223;29;20029;-87
2023/04/25 00:40:35;;;;;;;;;;;6.70;72.30;;;;;;4065844;29;19919;-86
2023/04/25 00:42:56;;;;;;;;;;;6.70;72.50;;;;;;4085538;28;19922;-87
2023/04/25 00:45:17;;;;;;;;;;;6.60;72.60;;;;;;4072898;29;19910;-88
2023/04/25 00:47:37;;;;;;;;;;;6.60;72.70;;;;;;4073639;29;19926;-87
2023/04/25 00:50:00;;;;;;;;;;;6.70;72.80;;;;;;4068041;29;20405;-87
2023/04/25 00:52:21;;;;;;;;;;;6.70;73.10;;;;;;4073150;29;20013;-86
2023/04/25 00:54:45;;;;;;;;;;;6.50;73.20;;;;;;4070103;29;19958;-87
2023/04/25 00:57:09;;;;;;;;;;;6.50;74.20;;;;;;4072394;29;19931;-88
2023/04/25 00:59:10;;;;;;;;;;;6.40;73.50;;;;;;4058828;29;19919;-88
2023/04/25 01:01:13;;;;;;;;;;;6.50;73.70;;;;;;4075770;29;19950;-87
2023/04/25 01:03:20;;;;;;;;;;;6.40;73.60;;;;;;4079099;29;19919;-87
2023/04/25 01:05:21;;;;;;;;;;;6.40;73.60;;;;;;4071760;29;19919;-86
2023/04/25 01:07:21;;;;;;;;;;;6.40;73.70;;;;;;4062968;29;19927;-86
2023/04/25 01:09:22;;;;;;;;;;;6.40;73.60;;;;;;4072043;29;19939;-87
2023/04/25 01:11:25;;;;;;;;;;;6.30;73.50;;;;;;4085159;28;20042;-86
2023/04/25 01:13:26;;;;;;;;;;;6.30;73.50;;;;;;4089176;28;19917;-86
2023/04/25 01:15:27;;;;;;;;;;;6.30;73.50;;;;;;4059742;29;19946;-87
2023/04/25 01:17:28;;;;;;;;;;;6.20;73.50;;;;;;4061381;29;19911;-86
2023/04/25 01:19:29;;;;;;;;;;;6.20;73.30;;;;;;4056487;29;19919;-86
2023/04/25 01:21:30;;;;;;;;;;;6.20;73.60;;;;;;4069341;29;20035;-86
2023/04/25 01:23:33;;;;;;;;;;;6.20;73.60;;;;;;4087474;28;20293;-87
2023/04/25 01:25:35;;;;;;;;;;;6.20;73.70;;;;;;4071743;29;19929;-86
2023/04/25 01:27:37;;;;;;;;;;;6.20;73.70;;;;;;4068857;29;20296;-87
2023/04/25 01:29:41;;;;;;;;;;;6.20;73.80;;;;;;4073209;29;19954;-86
2023/04/25 01:31:45;;;;;;;;;;;6.20;73.90;;;;;;4070813;29;19929;-87
2023/04/25 01:33:45;;;;;;;;;;;6.20;73.80;;;;;;4072205;29;19970;-86
2023/04/25 01:35:47;;;;;;;;;;;6.10;73.60;;;;;;4057766;29;19915;-87
2023/04/25 01:37:53;;;;;;;;;;;6.10;73.40;;;;;;4059735;29;19926;-86
2023/04/25 01:40:10;;;;;;;;;;;6.10;73.20;;;;;;4059831;29;20430;-87
2023/04/25 01:42:15;;;;;;;;;;;6.10;72.90;;;;;;4061589;29;20362;-86
2023/04/25 01:44:15;;;;;;;;;;;6.00;72.50;;;;;;4085102;28;19970;-87
2023/04/25 01:46:32;;;;;;;;;;;6.00;72.60;;;;;;4070253;29;20014;-88
2023/04/25 01:48:40;;;;;;;;;;;6.00;72.60;;;;;;4085804;23;19911;-84
2023/04/25 01:50:41;;;;;;;;;;;5.90;72.70;;;;;;4101282;28;19918;-84
2023/04/25 01:52:41;;;;;;;;;;;5.90;72.80;;;;;;4123781;28;19950;-84
2023/04/25 01:54:45;;;;;;;;;;;5.90;72.70;;;;;;4110021;28;19918;-86
2023/04/25 01:56:51;;;;;;;;;;;6.00;72.90;;;;;;4107205;28;19919;-86
2023/04/25 01:58:57;;;;;;;;;;;5.90;72.80;;;;;;4108555;28;19922;-87
2023/04/25 02:01:09;;;;;;;;;;;5.80;72.50;;;;;;4111266;28;19917;-87
2023/04/25 02:03:10;;;;;;;;;;;5.80;72.60;;;;;;4108685;28;20462;-85
2023/04/25 02:05:14;;;;;;;;;;;5.90;72.70;;;;;;4091520;28;19993;-87
2023/04/25 02:07:25;;;;;;;;;;;5.70;72.50;;;;;;4125816;28;19913;-86
2023/04/25 02:09:36;;;;;;;;;;;5.90;72.50;;;;;;4092278;28;20009;-85
2023/04/25 02:11:44;;;;;;;;;;;5.70;72.40;;;;;;4097429;28;19973;-85
2023/04/25 02:13:45;;;;;;;;;;;5.80;72.40;;;;;;4090570;28;19965;-86
2023/04/25 02:15:52;;;;;;;;;;;5.80;72.40;;;;;;4104578;28;19918;-86
2023/04/25 02:17:56;;;;;;;;;;;5.70;72.20;;;;;;4109751;28;20013;-85
2023/04/25 02:22:25;;;;;;;;;;;5.70;72.20;;;;;;4110946;28;19933;-86
2023/04/25 02:24:27;;;;;;;;;;;5.70;71.80;;;;;;4110345;28;20549;-85
2023/04/25 02:26:30;;;;;;;;;;;5.60;71.80;;;;;;4111290;28;20008;-85
2023/04/25 02:28:34;;;;;;;;;;;5.70;71.80;;;;;;4126925;28;19936;-85
2023/04/25 02:30:43;;;;;;;;;;;5.70;71.70;;;;;;4093695;28;19925;-86
2023/04/25 02:32:44;;;;;;;;;;;5.60;71.70;;;;;;4131706;28;20005;-84
2023/04/25 02:34:48;;;;;;;;;;;5.60;71.90;;;;;;4112891;28;19926;-85
2023/04/25 02:36:52;;;;;;;;;;;5.70;72.00;;;;;;4107645;28;19946;-86
2023/04/25 02:39:04;;;;;;;;;;;5.60;71.80;;;;;;4109585;28;19914;-84
2023/04/25 02:41:05;;;;;;;;;;;5.60;71.50;;;;;;4092800;28;19993;-84
2023/04/25 02:43:09;;;;;;;;;;;5.70;71.50;;;;;;4112610;28;19997;-86
2023/04/25 02:45:15;;;;;;;;;;;5.60;71.10;;;;;;4109907;28;20380;-85
2023/04/25 02:47:24;;;;;;;;;;;5.80;71.30;;;;;;4092211;28;20013;-86
2023/04/25 02:49:37;;;;;;;;;;;5.60;71.00;;;;;;4113461;28;19928;-85
2023/04/25 02:51:41;;;;;;;;;;;5.70;70.90;;;;;;4112438;28;20222;-88
2023/04/25 02:53:49;;;;;;;;;;;5.60;70.40;;;;;;4111608;28;19921;-85
2023/04/25 02:58:16;;;;;;;;;;;5.60;70.00;;;;;;4097423;28;20347;-88
2023/04/25 03:00:20;;;;;;;;;;;5.60;69.60;;;;;;4083991;29;19926;-86
2023/04/25 03:02:24;;;;;;;;;;;5.70;69.40;;;;;;4079942;29;20430;-86
2023/04/25 03:04:25;;;;;;;;;;;5.70;69.50;;;;;;4093867;28;20444;-86
2023/04/25 03:06:28;;;;;;;;;;;5.70;69.50;;;;;;4093043;28;19914;-86
2023/04/25 03:08:34;;;;;;;;;;;5.70;69.40;;;;;;4103682;28;19910;-88
2023/04/25 03:10:34;;;;;;;;;;;5.70;69.60;;;;;;4098077;28;19939;-87
2023/04/25 03:12:35;;;;;;;;;;;5.70;69.50;;;;;;4078250;29;19911;-86
2023/04/25 03:14:36;;;;;;;;;;;5.70;69.60;;;;;;4093688;28;20038;-86
2023/04/25 03:16:37;;;;;;;;;;;5.70;69.40;;;;;;4059347;29;20007;-86
2023/04/25 03:18:37;;;;;;;;;;;5.70;69.50;;;;;;4059555;29;19923;-87
2023/04/25 03:20:41;;;;;;;;;;;5.80;69.40;;;;;;4079754;29;19933;-86
2023/04/25 03:22:44;;;;;;;;;;;5.80;69.20;;;;;;4095543;28;19961;-86
2023/04/25 03:24:58;;;;;;;;;;;5.70;69.00;;;;;;4079293;28;19926;-85
2023/04/25 03:27:01;;;;;;;;;;;5.60;68.90;;;;;;4075428;29;19915;-87
2023/04/25 03:29:02;;;;;;;;;;;5.70;69.10;;;;;;4094305;28;19954;-87
2023/04/25 03:31:03;;;;;;;;;;;5.70;69.10;;;;;;4087634;29;19949;-86
2023/04/25 03:33:03;;;;;;;;;;;5.70;69.00;;;;;;4074587;29;19951;-87
2023/04/25 03:35:05;;;;;;;;;;;5.80;69.10;;;;;;4085473;28;20360;-85
2023/04/25 03:37:05;;;;;;;;;;;5.70;69.00;;;;;;4108894;28;20006;-86
2023/04/25 03:39:06;;;;;;;;;;;5.80;68.60;;;;;;4106851;28;19910;-86
2023/04/25 03:41:07;;;;;;;;;;;5.80;68.70;;;;;;4096467;28;20027;-86
2023/04/25 03:43:08;;;;;;;;;;;5.70;68.80;;;;;;4095869;28;19925;-86
2023/04/25 03:45:08;;;;;;;;;;;5.70;68.60;;;;;;4106639;28;19914;-87
2023/04/25 03:47:09;;;;;;;;;;;5.70;68.70;;;;;;4112472;28;19920;-86
2023/04/25 03:49:13;;;;;;;;;;;5.70;68.60;;;;;;4108793;28;19949;-86
2023/04/25 03:51:17;;;;;;;;;;;5.60;68.30;;;;;;4124452;28;19937;-86
2023/04/25 03:53:17;;;;;;;;;;;5.70;68.40;;;;;;4123611;28;19922;-86
2023/04/25 03:55:18;;;;;;;;;;;5.80;67.80;;;;;;4098118;28;19945;-86
2023/04/25 03:57:18;;;;;;;;;;;5.80;67.70;;;;;;4107419;28;19914;-86
2023/04/25 03:59:19;;;;;;;;;;;5.70;68.00;;;;;;4194636;22;20064;-87
2023/04/25 04:01:20;;;;;;;;;;;5.70;67.80;;;;;;4140699;28;20070;-86
2023/04/25 04:03:28;;;;;;;;;;;5.70;67.60;;;;;;4140308;28;19909;-86
2023/04/25 04:05:29;;;;;;;;;;;5.70;67.80;;;;;;4128830;28;19944;-86
2023/04/25 04:07:39;;;;;;;;;;;5.70;67.80;;;;;;4121305;28;19918;-86
2023/04/25 04:09:42;;;;;;;;;;;5.80;67.60;;;;;;4119873;28;19929;-86
2023/04/25 04:11:43;;;;;;;;;;;5.70;67.10;;;;;;4142362;28;19914;-86
2023/04/25 04:13:44;;;;;;;;;;;5.70;67.20;;;;;;4139347;28;19917;-87
2023/04/25 04:15:44;;;;;;;;;;;5.80;67.00;;;;;;4124768;28;20376;-87
2023/04/25 04:17:47;;;;;;;;;;;5.60;67.00;;;;;;4135527;28;19910;-86
2023/04/25 04:19:48;;;;;;;;;;;5.70;66.70;;;;;;4138032;28;19917;-87
2023/04/25 04:21:49;;;;;;;;;;;5.70;66.40;;;;;;4136967;28;19997;-85
2023/04/25 04:23:50;;;;;;;;;;;5.60;66.20;;;;;;4140837;28;19914;-85
2023/04/25 04:25:50;;;;;;;;;;;5.70;65.50;;;;;;4130340;28;19922;-86
2023/04/25 04:27:54;;;;;;;;;;;5.70;65.70;;;;;;4137820;28;20022;-85
2023/04/25 04:29:58;;;;;;;;;;;5.60;65.60;;;;;;4135197;28;19914;-86
2023/04/25 04:32:08;;;;;;;;;;;5.60;65.40;;;;;;4122608;28;19956;-86
2023/04/25 04:34:11;;;;;;;;;;;5.60;65.40;;;;;;4132008;28;20289;-85
2023/04/25 04:36:12;;;;;;;;;;;5.60;65.50;;;;;;4138196;28;19976;-86
2023/04/25 04:38:15;;;;;;;;;;;5.60;65.20;;;;;;4139092;28;19918;-86
2023/04/25 04:40:19;;;;;;;;;;;5.70;65.60;;;;;;4132445;28;19914;-86
2023/04/25 04:42:21;;;;;;;;;;;5.60;65.50;;;;;;4124231;28;19929;-85
2023/04/25 04:44:21;;;;;;;;;;;5.60;65.20;;;;;;4118280;28;19933;-86
2023/04/25 04:46:24;;;;;;;;;;;5.70;64.90;;;;;;4124645;28;19917;-87
2023/04/25 04:48:25;;;;;;;;;;;5.60;65.20;;;;;;4137626;28;20568;-87
2023/04/25 04:50:33;;;;;;;;;;;5.70;65.30;;;;;;4135012;28;19917;-86
2023/04/25 04:52:43;;;;;;;;;;;5.70;65.20;;;;;;4119137;28;19967;-86
2023/04/25 04:54:44;;;;;;;;;;;5.60;64.60;;;;;;4119128;28;19914;-85
2023/04/25 04:56:45;;;;;;;;;;;5.70;64.20;;;;;;4131036;28;19918;-85
2023/04/25 04:58:48;;;;;;;;;;;5.70;63.70;;;;;;4116732;28;20513;-87
2023/04/25 05:00:49;;;;;;;;;;;5.70;63.80;;;;;;4115418;28;19983;-86
2023/04/25 05:02:52;;;;;;;;;;;5.70;62.90;;;;;;4125909;28;19938;-85
2023/04/25 05:05:01;;;;;;;;;;;5.70;62.10;;;;;;4142464;28;20356;-86
2023/04/25 05:07:07;;;;;;;;;;;5.60;61.00;;;;;;4126437;28;19919;-86
2023/04/25 05:09:11;;;;;;;;;;;5.60;61.10;;;;;;4133996;28;19921;-85
2023/04/25 05:11:23;;;;;;;;;;;5.70;61.40;;;;;;4125524;28;19922;-84
2023/04/25 05:13:24;;;;;;;;;;;5.70;61.00;;;;;;4127126;28;19913;-85
2023/04/25 05:15:25;;;;;;;;;;;5.70;60.70;;;;;;4125964;28;19992;-87
2023/04/25 05:17:33;;;;;;;;;;;5.60;61.00;;;;;;4123736;28;20287;-86
2023/04/25 05:19:36;;;;;;;;;;;5.70;60.80;;;;;;4139154;28;19925;-85
2023/04/25 05:21:37;;;;;;;;;;;5.70;60.30;;;;;;4142982;28;19914;-85
2023/04/25 05:23:38;;;;;;;;;;;5.70;60.80;;;;;;4135882;28;19925;-86
2023/04/25 05:25:38;;;;;;;;;;;5.70;61.00;;;;;;4137602;28;19917;-86
2023/04/25 05:27:41;;;;;;;;;;;5.70;60.90;;;;;;4126111;28;20341;-86
2023/04/25 05:29:42;;;;;;;;;;;5.70;60.40;;;;;;4149315;28;20040;-86
2023/04/25 05:31:45;;;;;;;;;;;5.70;60.00;;;;;;4142835;28;19918;-88
2023/04/25 05:34:00;;;;;;;;;;;5.70;60.00;;;;;;4141095;28;19914;-88
2023/04/25 05:36:03;;;;;;;;;;;5.70;59.80;;;;;;4147690;28;19901;-85
2023/04/25 05:38:04;;;;;;;;;;;5.70;59.80;;;;;;4146331;28;20119;-87
2023/04/25 05:40:06;;;;;;;;;;;5.70;60.10;;;;;;4159265;28;20004;-88
2023/04/25 05:42:07;;;;;;;;;;;5.70;59.90;;;;;;4140016;28;20339;-86
2023/04/25 05:44:08;;;;;;;;;;;5.80;59.90;;;;;;4134474;28;20045;-86
2023/04/25 05:46:12;;;;;;;;;;;5.80;59.60;;;;;;4123681;28;19922;-86
2023/04/25 05:48:12;;;;;;;;;;;5.80;58.90;;;;;;4127127;28;19964;-86
2023/04/25 05:50:13;;;;;;;;;;;5.80;59.30;;;;;;4124405;28;19929;-86
2023/04/25 05:52:14;;;;;;;;;;;5.80;59.30;;;;;;4128091;28;19984;-86
2023/04/25 05:54:23;;;;;;;;;;;5.80;59.00;;;;;;4127484;28;20271;-85
2023/04/25 05:56:26;;;;;;;;;;;5.80;59.50;;;;;;4128748;28;20322;-86
2023/04/25 05:58:27;;;;;;;;;;;5.90;59.20;;;;;;4131365;28;19965;-88
2023/04/25 06:00:28;;;;;;;;;;;5.90;58.90;;;;;;4142601;28;19925;-88
2023/04/25 06:02:29;;;;;;;;;;;5.90;58.30;;;;;;4130093;28;19973;-85
2023/04/25 06:04:29;;;;;;;;;;;6.00;57.40;;;;;;4127294;28;20008;-85
2023/04/25 06:06:30;;;;;;;;;;;6.00;57.00;;;;;;4145665;28;21683;-85
2023/04/25 06:08:31;;;;;;;;;;;6.00;57.50;;;;;;4141618;28;19922;-85
2023/04/25 06:10:32;;;;;;;;;;;6.10;57.40;;;;;;4145113;28;20119;-85
2023/04/25 06:12:33;;;;;;;;;;;6.10;57.60;;;;;;4139388;28;20433;-85
2023/04/25 06:14:33;;;;;;;;;;;6.20;57.70;;;;;;4145065;28;19922;-85
2023/04/25 06:16:34;;;;;;;;;;;6.30;57.90;;;;;;4139611;28;19918;-85
2023/04/25 06:18:39;;;;;;;;;;;6.40;57.50;;;;;;4134096;28;20406;-85
2023/04/25 06:20:47;;;;;;;;;;;6.40;57.80;;;;;;4144029;28;20031;-84
2023/04/25 06:22:49;;;;;;;;;;;6.50;57.00;;;;;;4131908;28;20012;-86
2023/04/25 06:24:49;;;;;;;;;;;6.50;56.60;;;;;;4144498;28;19941;-85
2023/04/25 06:26:50;;;;;;;;;;;6.60;55.70;;;;;;4149411;28;19952;-85
2023/04/25 06:28:51;;;;;;;;;;;6.70;56.00;;;;;;4124058;28;19906;-85
2023/04/25 06:30:55;;;;;;;;;;;6.70;56.00;;;;;;4144311;28;19953;-86
2023/04/25 06:32:58;;;;;;;;;;;6.70;56.20;;;;;;4145917;28;19918;-86
2023/04/25 06:35:06;;;;;;;;;;;6.70;56.40;;;;;;4123673;28;19968;-87
2023/04/25 06:37:12;;;;;;;;;;;6.60;56.40;;;;;;4123287;28;20403;-86
2023/04/25 06:39:16;;;;;;;;;;;6.70;57.10;;;;;;4119826;28;19918;-85
2023/04/25 06:41:17;;;;;;;;;;;6.70;57.50;;;;;;4136721;28;19924;-86
2023/04/25 06:43:33;;;;;;;;;;;6.80;58.10;;;;;;4130821;28;20363;-86
2023/04/25 06:45:33;;;;;;;;;;;6.60;57.20;;;;;;4136916;28;19917;-85
2023/04/25 06:47:34;;;;;;;;;;;6.70;57.50;;;;;;4130887;28;20406;-87
2023/04/25 06:49:40;;;;;;;;;;;6.60;57.40;;;;;;4123157;28;20081;-88
2023/04/25 06:51:41;;;;;;;;;;;6.50;57.30;;;;;;4142585;28;19918;-86
2023/04/25 06:53:41;;;;;;;;;;;6.60;58.00;;;;;;4136440;28;19928;-86
2023/04/25 06:55:47;;;;;;;;;;;6.60;58.40;;;;;;4140019;28;19921;-86
2023/04/25 06:57:48;;;;;;;;;;;6.60;58.60;;;;;;4144074;28;19909;-86
2023/04/25 06:59:48;;;;;;;;;;;6.50;58.20;;;;;;4136516;28;20210;-87
2023/04/25 07:01:49;;;;;;;;;;;6.60;58.20;;;;;;4133771;28;19924;-86
2023/04/25 07:03:53;;;;;;;;;;;6.60;58.60;;;;;;4125869;28;19942;-88
2023/04/25 07:05:54;;;;;;;;;;;6.60;59.00;;;;;;4123192;28;19957;-87
2023/04/25 07:07:55;;;;;;;;;;;6.70;59.30;;;;;;4135257;28;20048;-86
2023/04/25 07:09:56;;;;;;;;;;;6.70;59.40;;;;;;4142980;28;19909;-87
2023/04/25 07:12:01;;;;;;;;;;;6.70;59.20;;;;;;4125522;28;20012;-86
2023/04/25 07:14:01;;;;;;;;;;;6.80;59.30;;;;;;4123537;28;20114;-84
2023/04/25 07:16:03;;;;;;;;;;;6.70;58.70;;;;;;4121875;28;19963;-87
2023/04/25 07:18:03;;;;;;;;;;;6.70;57.40;;;;;;4134390;28;19961;-87
2023/04/25 07:20:09;;;;;;;;;;;6.70;57.00;;;;;;4128590;28;19921;-87
2023/04/25 07:22:09;;;;;;;;;;;6.70;57.10;;;;;;4123114;28;19914;-86
2023/04/25 07:26:31;;;;;;;;;;;6.80;55.40;;;;;;4094816;28;19918;-86
2023/04/25 07:28:35;;;;;;;;;;;6.80;53.90;;;;;;4076568;29;19925;-86
2023/04/25 07:30:39;;;;;;;;;;;6.80;53.10;;;;;;4080520;29;19961;-86
2023/04/25 07:32:50;;;;;;;;;;;6.70;53.30;;;;;;4079434;29;20305;-87
2023/04/25 07:34:51;;;;;;;;;;;6.80;53.30;;;;;;4079272;29;20226;-86
2023/04/25 07:36:52;;;;;;;;;;;6.80;52.60;;;;;;4079155;29;20391;-87
2023/04/25 07:38:59;;;;;;;;;;;6.80;52.30;;;;;;4066493;29;19929;-85
2023/04/25 07:41:00;;;;;;;;;;;6.90;53.00;;;;;;4066427;29;20055;-85
2023/04/25 07:43:14;;;;;;;;;;;;;;;;;;;;;
2023/04/25 07:45:17;;;;;;;;;;;6.80;53.10;;;;;;4078636;29;19938;-86
2023/04/25 07:47:24;;;;;;;;;;;6.80;53.20;;;;;;4095485;28;19964;-86
2023/04/25 07:49:30;;;;;;;;;;;6.80;52.90;;;;;;4064973;29;19919;-85
2023/04/25 07:51:31;;;;;;;;;;;6.80;53.00;;;;;;4103056;28;19919;-85
2023/04/25 07:53:33;;;;;;;;;;;6.80;53.30;;;;;;4076835;29;19927;-87
2023/04/25 07:55:34;;;;;;;;;;;6.80;53.60;;;;;;4097724;23;19923;-88
2023/04/25 07:57:35;;;;;;;;;;;7.00;53.90;;;;;;4087789;28;19982;-87
2023/04/25 07:59:35;;;;;;;;;;;6.90;54.30;;;;;;4093108;28;19914;-88
2023/04/25 08:01:36;;;;;;;;;;;6.90;53.10;;;;;;4096318;28;19981;-89
2023/04/25 08:03:37;;;;;;;;;;;6.90;53.30;;;;;;4101128;28;20046;-86
2023/04/25 08:05:37;;;;;;;;;;;7.00;53.20;;;;;;4099670;28;20267;-86
2023/04/25 08:07:41;;;;;;;;;;;7.00;52.40;;;;;;4091348;28;19918;-86
2023/04/25 08:09:42;;;;;;;;;;;7.10;52.50;;;;;;4079680;29;20050;-86
2023/04/25 08:11:43;;;;;;;;;;;7.10;52.50;;;;;;4094572;28;19914;-86
2023/04/25 08:13:43;;;;;;;;;;;7.00;51.60;;;;;;4081345;29;20621;-86
2023/04/25 08:15:44;;;;;;;;;;;7.00;51.00;;;;;;4092221;28;19922;-86
2023/04/25 08:17:45;;;;;;;;;;;7.00;51.60;;;;;;4078129;29;19950;-86
2023/04/25 08:19:45;;;;;;;;;;;7.00;51.80;;;;;;4106637;28;19918;-87
2023/04/25 08:21:46;;;;;;;;;;;7.00;51.70;;;;;;4112602;28;19973;-87
2023/04/25 08:23:46;;;;;;;;;;;7.00;51.80;;;;;;4095959;28;19915;-86
2023/04/25 08:25:47;;;;;;;;;;;7.00;52.40;;;;;;4098038;28;19973;-85
2023/04/25 08:27:47;;;;;;;;;;;7.00;52.80;;;;;;4094788;28;19919;-87
2023/04/25 08:29:48;;;;;;;;;;;7.00;52.50;;;;;;4078339;29;19915;-87
2023/04/25 08:31:50;;;;;;;;;;;7.00;52.20;;;;;;4111222;28;19918;-85
2023/04/25 08:33:51;;;;;;;;;;;7.00;52.10;;;;;;4082703;29;19915;-87
2023/04/25 08:35:52;;;;;;;;;;;7.00;52.70;;;;;;4084886;28;20485;-88
2023/04/25 08:37:53;;;;;;;;;;;7.00;52.90;;;;;;4108896;28;19957;-87
2023/04/25 08:39:53;;;;;;;;;;;7.10;52.50;;;;;;4075355;29;19926;-87
2023/04/25 08:41:54;;;;;;;;;;;7.00;51.70;;;;;;4093616;28;19919;-87
2023/04/25 08:43:56;;;;;;;;;;;7.00;52.20;;;;;;4077616;29;19998;-87
2023/04/25 08:45:59;;;;;;;;;;;7.10;52.50;;;;;;4094353;28;19925;-87
2023/04/25 08:48:00;;;;;;;;;;;7.00;52.20;;;;;;4074384;29;20292;-87
2023/04/25 08:50:02;;;;;;;;;;;7.10;52.70;;;;;;4089995;28;20315;-87
2023/04/25 08:52:05;;;;;;;;;;;7.10;53.00;;;;;;4081244;28;19921;-86
2023/04/25 08:54:10;;;;;;;;;;;7.10;52.90;;;;;;4078187;29;19919;-87
2023/04/25 08:56:13;;;;;;;;;;;7.10;53.20;;;;;;4077060;29;19919;-86
2023/04/25 08:58:14;;;;;;;;;;;7.20;53.70;;;;;;4092111;28;19919;-87
2023/04/25 09:00:15;;;;;;;;;;;7.20;53.90;;;;;;4080914;28;19918;-86
2023/04/25 09:02:17;;;;;;;;;;;7.20;53.90;;;;;;4105710;28;19918;-87
2023/04/25 09:04:20;;;;;;;;;;;7.20;53.90;;;;;;4079456;29;20847;-88
2023/04/25 09:06:21;;;;;;;;;;;7.20;54.10;;;;;;4096695;28;19914;-86
2023/04/25 09:08:21;;;;;;;;;;;7.30;54.00;;;;;;4091523;28;19930;-86
2023/04/25 09:10:22;;;;;;;;;;;7.30;54.80;;;;;;4094648;28;20016;-87
2023/04/25 09:12:23;;;;;;;;;;;7.30;55.30;;;;;;4078108;29;20515;-87
2023/04/25 09:14:25;;;;;;;;;;;7.40;56.00;;;;;;4095450;28;19917;-86
2023/04/25 09:16:26;;;;;;;;;;;7.50;54.80;;;;;;4097020;28;19966;-86
2023/04/25 09:18:29;;;;;;;;;;;7.50;53.70;;;;;;4100038;28;21283;-87
2023/04/25 09:20:29;;;;;;;;;;;7.60;53.00;;;;;;4098009;28;19915;-85
2023/04/25 09:22:30;;;;;;;;;;;7.70;51.80;;;;;;4074738;29;19914;-85
2023/04/25 09:24:32;;;;;;;;;;;7.80;51.30;;;;;;4093881;28;19919;-89
2023/04/25 09:26:32;;;;;;;;;;;7.90;51.00;;;;;;4077372;29;20489;-87
2023/04/25 09:28:34;;;;;;;;;;;8.00;51.00;;;;;;4092405;28;19946;-87
2023/04/25 09:30:36;;;;;;;;;;;8.00;50.30;;;;;;4109109;28;20072;-86
2023/04/25 09:32:37;;;;;;;;;;;8.10;49.90;;;;;;4093085;28;20312;-87
2023/04/25 09:34:44;;;;;;;;;;;8.20;49.40;;;;;;4097709;28;19915;-87
2023/04/25 09:36:48;;;;;;;;;;;8.20;49.10;;;;;;4096491;28;19973;-88
2023/04/25 09:38:49;;;;;;;;;;;8.20;48.70;;;;;;4080690;29;19919;-87
2023/04/25 09:40:51;;;;;;;;;;;8.20;48.60;;;;;;4083510;29;19911;-89
2023/04/25 09:42:52;;;;;;;;;;;8.00;49.00;;;;;;4094306;28;19929;-89
2023/04/25 09:44:53;;;;;;;;;;;8.00;49.70;;;;;;4099553;28;20008;-87
2023/04/25 09:46:54;;;;;;;;;;;8.00;50.60;;;;;;4080839;29;20574;-88
2023/04/25 09:48:54;;;;;;;;;;;8.00;50.50;;;;;;4080555;29;19923;-86
2023/04/25 09:51:08;;;;;;;;;;;8.00;51.10;;;;;;4084512;29;19918;-86
2023/04/25 09:53:09;;;;;;;;;;;8.00;51.70;;;;;;4099563;28;20241;-87
2023/04/25 09:55:10;;;;;;;;;;;8.00;51.50;;;;;;4098844;28;19919;-86
2023/04/25 09:57:12;;;;;;;;;;;8.10;51.90;;;;;;4096150;28;20001;-86
2023/04/25 09:59:14;;;;;;;;;;;8.10;51.90;;;;;;4097878;28;20366;-86
2023/04/25 10:01:16;;;;;;;;;;;8.10;51.70;;;;;;4099294;28;19906;-87
2023/04/25 10:03:17;;;;;;;;;;;8.10;50.50;;;;;;4080062;29;19915;-86
2023/04/25 10:05:18;;;;;;;;;;;8.20;49.10;;;;;;4097318;28;20325;-87
2023/04/25 10:07:20;;;;;;;;;;;8.10;49.00;;;;;;4102590;28;19958;-87
2023/04/25 10:09:23;;;;;;;;;;;8.10;49.10;;;;;;4078439;29;19993;-85
2023/04/25 10:11:24;;;;;;;;;;;8.10;49.90;;;;;;4084353;29;20301;-88
2023/04/25 10:13:25;;;;;;;;;;;8.10;51.00;;;;;;4079915;29;19918;-86
2023/04/25 10:15:26;;;;;;;;;;;8.10;51.60;;;;;;4104527;28;20413;-86
2023/04/25 10:17:31;;;;;;;;;;;8.20;52.00;;;;;;4093724;28;19938;-86
2023/04/25 10:19:31;;;;;;;;;;;8.10;51.90;;;;;;4098902;28;19916;-87
2023/04/25 10:21:33;;;;;;;;;;;8.10;50.80;;;;;;4103196;28;19958;-87
2023/04/25 10:23:34;;;;;;;;;;;8.10;50.70;;;;;;4099299;28;20033;-85
2023/04/25 10:25:35;;;;;;;;;;;8.10;51.20;;;;;;4101598;28;19954;-87
2023/04/25 10:27:36;;;;;;;;;;;8.10;51.40;;;;;;4103787;28;19987;-87
2023/04/25 10:29:37;;;;;;;;;;;8.00;51.40;;;;;;4092956;28;19976;-88
2023/04/25 10:31:46;;;;;;;;;;;7.90;50.70;;;;;;4097619;28;20377;-87
2023/04/25 10:33:48;;;;;;;;;;;7.90;51.10;;;;;;4096420;28;19923;-87
2023/04/25 10:35:49;;;;;;;;;;;7.90;52.70;;;;;;4101049;28;19914;-87
2023/04/25 10:38:16;;;;;;;;;;;7.90;52.50;;;;;;4100098;28;20484;-87
2023/04/25 10:40:24;;;;;;;;;;;8.00;53.00;;;;;;4063290;29;20010;-87
2023/04/25 10:42:28;;;;;;;;;;;8.00;51.80;;;;;;4070288;29;19918;-85
2023/04/25 10:44:29;;;;;;;;;;;8.00;51.30;;;;;;4085643;29;19911;-86
2023/04/25 10:46:35;;;;;;;;;;;8.00;50.00;;;;;;4064919;29;19915;-86
2023/04/25 10:48:36;;;;;;;;;;;8.00;49.90;;;;;;4049049;29;19987;-85
2023/04/25 10:50:38;;;;;;;;;;;8.00;49.90;;;;;;4066850;29;19915;-86
2023/04/25 10:52:42;;;;;;;;;;;8.00;49.60;;;;;;4067198;29;20183;-87
2023/04/25 10:54:46;;;;;;;;;;;8.10;50.60;;;;;;4079323;29;20104;-86
2023/04/25 10:56:48;;;;;;;;;;;8.10;51.00;;;;;;4042388;29;19933;-86
2023/04/25 10:58:49;;;;;;;;;;;8.20;49.30;;;;;;4076580;29;20011;-87
2023/04/25 11:00:49;;;;;;;;;;;8.20;48.60;;;;;;4081062;29;19911;-86
2023/04/25 11:02:58;;;;;;;;;;;8.20;48.80;;;;;;4077876;29;19919;-86
2023/04/25 11:04:59;;;;;;;;;;;8.30;49.80;;;;;;4062475;29;20320;-89
2023/04/25 11:07:00;;;;;;;;;;;8.30;49.40;;;;;;4076681;29;19998;-86
2023/04/25 11:09:00;;;;;;;;;;;8.40;50.30;;;;;;4076337;29;20456;-86
2023/04/25 11:11:01;;;;;;;;;;;8.50;50.40;;;;;;4046003;29;19927;-87
2023/04/25 11:13:02;;;;;;;;;;;8.40;49.60;;;;;;4074204;29;20401;-87
2023/04/25 11:15:07;;;;;;;;;;;8.60;50.70;;;;;;4064404;29;20566;-86
2023/04/25 11:17:07;;;;;;;;;;;8.60;49.80;;;;;;4058650;29;19942;-86
2023/04/25 11:19:08;;;;;;;;;;;8.70;49.70;;;;;;4094626;28;19918;-87
2023/04/25 11:21:09;;;;;;;;;;;8.60;50.00;;;;;;4098421;28;19966;-86
2023/04/25 11:23:10;;;;;;;;;;;8.70;50.10;;;;;;4097831;28;20053;-87
2023/04/25 11:25:11;;;;;;;;;;;8.60;50.60;;;;;;4104895;28;19910;-86
2023/04/25 11:27:12;;;;;;;;;;;8.50;50.10;;;;;;4097397;28;19926;-86
2023/04/25 11:29:12;;;;;;;;;;;8.50;49.80;;;;;;4082203;29;20216;-89
2023/04/25 11:31:13;;;;;;;;;;;8.40;49.90;;;;;;4101222;28;19910;-88
2023/04/25 11:33:14;;;;;;;;;;;8.30;50.70;;;;;;4096628;28;19957;-88
2023/04/25 11:35:15;;;;;;;;;;;8.10;51.40;;;;;;4096393;28;19907;-88
2023/04/25 11:37:15;;;;;;;;;;;8.10;51.70;;;;;;4081215;29;19911;-88
2023/04/25 11:39:17;;;;;;;;;;;8.00;51.60;;;;;;4096673;29;20076;-88
2023/04/25 11:41:18;;;;;;;;;;;8.00;52.40;;;;;;4095391;28;19994;-87
2023/04/25 11:43:22;;;;;;;;;;;8.00;53.00;;;;;;4065114;29;19994;-86
2023/04/25 11:45:23;;;;;;;;;;;8.00;52.60;;;;;;4093445;28;19959;-88
2023/04/25 11:47:28;;;;;;;;;;;8.10;53.70;;;;;;4092993;28;20353;-86
2023/04/25 11:49:32;;;;;;;;;;;8.00;53.10;;;;;;4111558;28;20135;-88
2023/04/25 11:51:39;;;;;;;;;;;8.10;53.00;;;;;;4111399;28;19965;-87
2023/04/25 11:53:44;;;;;;;;;;;8.10;53.10;;;;;;4095061;28;20016;-84
2023/04/25 11:55:45;;;;;;;;;;;8.10;53.60;;;;;;4082576;29;19915;-87
2023/04/25 11:57:50;;;;;;;;;;;8.10;53.60;;;;;;4094973;28;19942;-88
2023/04/25 11:59:51;;;;;;;;;;;8.00;54.30;;;;;;4079619;29;19915;-87
2023/04/25 12:01:51;;;;;;;;;;;8.00;56.00;;;;;;4093549;28;20447;-87
2023/04/25 12:03:52;;;;;;;;;;;7.90;56.90;;;;;;4083728;29;20016;-87
2023/04/25 12:05:53;;;;;;;;;;;7.80;56.70;;;;;;4100909;28;19928;-86
2023/04/25 12:07:53;;;;;;;;;;;7.80;56.40;;;;;;4098524;28;20033;-86
2023/04/25 12:09:54;;;;;;;;;;;7.80;56.20;;;;;;4097203;28;19911;-87
2023/04/25 12:11:55;;;;;;;;;;;7.70;56.60;;;;;;4099025;28;20887;-86
2023/04/25 12:14:01;;;;;;;;;;;7.60;57.80;;;;;;4082499;29;20228;-87
2023/04/25 12:16:02;;;;;;;;;;;7.70;57.80;;;;;;4095001;28;20405;-87